Time;durP1;ratioP1;P1;durP2;ratioP2;P2;SDS_P1;SDS_P2;PMS_P1;PMS_P2;Temp;Humidity;BMP_temperature;BMP_pressure;BME280_temperature;BME280_humidity;BME280_pressure;Samples;Min_cycle;Max_cycle;Signal;HPM_P1;HPM_P2
2023/03/06 00:01:47;;;;;;;0.10;0.10;;;;;;;4.09;67.95;101043.78;5117627;28;20039;-83
2023/03/06 00:04:16;;;;;;;0.10;0.10;;;;;;;4.07;68.71;101035.91;5105272;28;20366;-86
2023/03/06 00:06:42;;;;;;;0.17;0.17;;;;;;;4.06;68.15;101034.16;5108852;28;20481;-83
2023/03/06 00:09:09;;;;;;;0.10;0.10;;;;;;;4.05;68.32;101033.28;5105273;28;20053;-83
2023/03/06 00:11:36;;;;;;;0.20;0.20;;;;;;;4.06;67.88;101028.91;5103475;28;20362;-82
2023/03/06 00:14:02;;;;;;;0.10;0.10;;;;;;;4.08;67.80;101031.56;5106437;28;20055;-81
2023/03/06 00:16:28;;;;;;;0.20;0.20;;;;;;;4.09;68.16;101025.44;5115222;28;20066;-84
2023/03/06 00:18:54;;;;;;;0.10;0.10;;;;;;;4.11;68.20;101028.94;5110321;28;20031;-84
2023/03/06 00:21:21;;;;;;;0.10;0.10;;;;;;;4.11;68.73;101018.47;5113638;28;20096;-83
2023/03/06 00:23:47;;;;;;;0.10;0.10;;;;;;;4.14;68.61;101024.63;5114733;28;20137;-82
2023/03/06 00:26:13;;;;;;;0.10;0.10;;;;;;;4.18;68.39;101015.03;5111237;28;20035;-82
2023/03/06 00:28:39;;;;;;;0.20;0.20;;;;;;;4.22;68.37;101011.56;5115595;28;20076;-82
2023/03/06 00:31:05;;;;;;;0.10;0.10;;;;;;;4.21;68.63;101013.34;5114855;28;20040;-83
2023/03/06 00:33:31;;;;;;;2.45;1.10;;;;;;;4.23;68.18;101004.59;5114947;28;20020;-83
2023/03/06 00:35:57;;;;;;;0.15;0.15;;;;;;;4.23;68.63;100999.34;5111667;28;20028;-83
2023/03/06 00:38:26;;;;;;;0.10;0.10;;;;;;;4.21;68.79;100997.59;5112685;28;20050;-83
2023/03/06 00:40:52;;;;;;;0.20;0.20;;;;;;;4.20;68.48;100997.59;5108567;28;20050;-83
2023/03/06 00:43:18;;;;;;;0.20;0.20;;;;;;;4.19;69.05;100996.69;5110940;28;20031;-83
2023/03/06 00:45:44;;;;;;;0.20;0.20;;;;;;;4.18;68.44;100991.44;5111297;28;20039;-84
2023/03/06 00:48:10;;;;;;;0.20;0.20;;;;;;;4.16;68.41;100986.19;5116771;27;20022;-83
2023/03/06 00:50:37;;;;;;;0.10;0.10;;;;;;;4.18;68.24;100987.06;5109973;28;20050;-83
2023/03/06 00:53:03;;;;;;;0.10;0.10;;;;;;;4.19;68.23;100975.72;5105449;28;20101;-83
2023/03/06 00:55:30;;;;;;;0.40;0.40;;;;;;;4.18;68.51;100971.31;5107494;28;20024;-82
2023/03/06 00:57:56;;;;;;;0.30;0.30;;;;;;;4.19;68.10;100977.47;5111354;28;20034;-83
2023/03/06 01:00:25;;;;;;;0.10;0.10;;;;;;;4.18;68.80;100973.06;5104544;28;20114;-83
2023/03/06 01:02:52;;;;;;;0.65;0.65;;;;;;;4.16;68.41;100973.06;5112584;28;20024;-84
2023/03/06 01:05:19;;;;;;;0.20;0.20;;;;;;;4.16;68.01;100966.94;5107826;28;20508;-83
2023/03/06 01:07:45;;;;;;;0.10;0.10;;;;;;;4.13;67.96;100967.78;5103922;28;20084;-81
2023/03/06 01:10:11;;;;;;;0.10;0.10;;;;;;;4.11;67.97;100956.44;5103438;28;20026;-82
2023/03/06 01:12:38;;;;;;;0.20;0.20;;;;;;;4.08;68.51;100959.00;5103929;28;20043;-82
2023/03/06 01:15:05;;;;;;;0.20;0.20;;;;;;;4.04;68.49;100957.22;5103221;28;20066;-82
2023/03/06 01:17:31;;;;;;;0.20;0.20;;;;;;;4.03;68.47;100947.59;5102038;28;20558;-82
2023/03/06 01:19:57;;;;;;;0.10;0.10;;;;;;;4.01;68.75;100957.19;5108421;28;20035;-82
2023/03/06 01:22:23;;;;;;;0.20;0.20;;;;;;;3.98;68.38;100957.19;5106773;28;20096;-84
2023/03/06 01:24:50;;;;;;;1.75;1.00;;;;;;;3.95;68.42;100951.91;5110728;28;20473;-82
2023/03/06 01:27:16;;;;;;;0.13;0.13;;;;;;;3.93;68.24;100956.25;5106888;28;20123;-83
2023/03/06 01:29:42;;;;;;;0.10;0.10;;;;;;;3.89;69.25;100958.84;5101862;28;20473;-84
2023/03/06 01:32:08;;;;;;;1.25;0.85;;;;;;;3.89;68.75;100958.84;5108677;28;20020;-84
2023/03/06 01:34:34;;;;;;;0.10;0.10;;;;;;;3.88;68.91;100958.84;5114885;28;20035;-83
2023/03/06 01:37:00;;;;;;;0.10;0.10;;;;;;;3.89;67.99;100952.72;5106646;28;21010;-86
2023/03/06 01:39:27;;;;;;;0.10;0.10;;;;;;;3.84;68.73;100952.69;5113728;28;20019;-84
2023/03/06 01:41:53;;;;;;;0.20;0.20;;;;;;;3.82;68.98;100950.91;5108689;28;20031;-84
2023/03/06 01:44:19;;;;;;;0.10;0.10;;;;;;;3.80;68.83;100948.28;5107823;28;20028;-83
2023/03/06 01:46:45;;;;;;;0.10;0.10;;;;;;;3.83;68.68;100947.44;5106503;28;20056;-82
2023/03/06 01:49:19;;;;;;;0.55;0.55;;;;;;;3.83;69.08;100945.69;5115114;28;20103;-83
2023/03/06 01:52:15;;;;;;;0.13;0.13;;;;;;;3.87;68.47;100943.97;5115206;28;20028;-84
2023/03/06 01:54:49;;;;;;;0.10;0.10;;;;;;;3.84;69.04;100942.19;5111220;28;20374;-83
2023/03/06 01:57:22;;;;;;;0.10;0.10;;;;;;;3.85;69.20;100941.34;5112853;28;20566;-84
2023/03/06 01:59:55;;;;;;;0.10;0.10;;;;;;;3.83;68.97;100943.06;5115393;28;20046;-82
2023/03/06 02:02:21;;;;;;;0.13;0.13;;;;;;;3.82;69.25;100936.06;5118012;28;20125;-83
2023/03/06 02:04:48;;;;;;;0.10;0.10;;;;;;;3.84;69.58;100942.19;5111636;28;20622;-84
2023/03/06 02:07:17;;;;;;;0.20;0.20;;;;;;;3.86;68.79;100931.72;5115055;28;20032;-83
2023/03/06 02:09:43;;;;;;;0.10;0.10;;;;;;;3.89;68.90;100931.75;5118078;28;20019;-83
2023/03/06 02:12:17;;;;;;;0.20;0.20;;;;;;;3.89;69.98;100924.75;5105825;28;20059;-84
2023/03/06 02:14:44;;;;;;;0.20;0.20;;;;;;;3.91;69.58;100926.53;5111303;28;20550;-83
2023/03/06 02:17:13;;;;;;;0.10;0.10;;;;;;;3.97;69.51;100929.19;5108962;28;20035;-83
2023/03/06 02:20:11;;;;;;;0.13;0.13;;;;;;;4.07;69.16;100920.53;5110735;28;20039;-81
2023/03/06 02:23:00;;;;;;;0.10;0.10;;;;;;;4.03;69.26;100914.38;5113261;28;20109;-83
2023/03/06 02:25:33;;;;;;;0.10;0.10;;;;;;;4.09;69.02;100913.56;5102937;28;20800;-82
2023/03/06 02:28:00;;;;;;;0.20;0.20;;;;;;;4.08;69.09;100909.19;5105506;28;20036;-84
2023/03/06 02:30:28;;;;;;;0.10;0.10;;;;;;;4.13;68.60;100904.84;5107406;28;20139;-84
2023/03/06 02:32:54;;;;;;;0.10;0.10;;;;;;;4.16;69.28;100904.88;5102775;28;20024;-82
2023/03/06 02:35:24;;;;;;;0.10;0.10;;;;;;;4.24;69.25;100890.94;5108904;28;20078;-85
2023/03/06 02:37:51;;;;;;;0.10;0.10;;;;;;;4.25;69.36;100895.31;5106528;28;20032;-84
2023/03/06 02:40:20;;;;;;;0.10;0.10;;;;;;;4.27;69.21;100896.22;5119830;28;20024;-82
2023/03/06 02:42:49;;;;;;;0.17;0.17;;;;;;;4.32;69.16;100887.50;5119972;28;20035;-83
2023/03/06 02:45:22;;;;;;;0.40;0.40;;;;;;;4.35;68.88;100884.91;5120016;28;20028;-82
2023/03/06 02:47:49;;;;;;;0.10;0.10;;;;;;;4.37;68.98;100871.78;5118564;28;20050;-83
2023/03/06 02:50:15;;;;;;;0.10;0.10;;;;;;;4.40;68.80;100869.19;5122333;28;20110;-84
2023/03/06 02:52:41;;;;;;;0.10;0.10;;;;;;;4.41;69.01;100863.09;5112094;28;20079;-81
2023/03/06 02:55:08;;;;;;;0.10;0.10;;;;;;;4.45;68.91;100859.59;5108410;28;20040;-84
2023/03/06 02:57:34;;;;;;;0.17;0.17;;;;;;;4.44;68.77;100857.84;5112006;28;20032;-83
2023/03/06 03:00:00;;;;;;;0.10;0.10;;;;;;;4.47;68.88;100847.34;5112757;28;20114;-83
2023/03/06 03:02:26;;;;;;;0.20;0.20;;;;;;;4.50;68.89;100852.63;5112972;28;20667;-84
2023/03/06 03:04:52;;;;;;;0.20;0.20;;;;;;;4.51;68.60;100843.00;5116183;27;20039;-83
2023/03/06 03:07:18;;;;;;;0.10;0.10;;;;;;;4.53;68.61;100846.53;5112980;27;20077;-82
2023/03/06 03:09:44;;;;;;;0.10;0.10;;;;;;;4.50;68.92;100834.25;5114838;27;20032;-83
2023/03/06 03:12:11;;;;;;;0.10;0.10;;;;;;;4.48;68.95;100830.75;5121268;28;20373;-83
2023/03/06 03:14:37;;;;;;;0.20;0.20;;;;;;;4.48;68.80;100836.00;5113096;27;20036;-84
2023/03/06 03:17:03;;;;;;;0.10;0.10;;;;;;;4.48;68.85;100827.25;5109580;28;20027;-82
2023/03/06 03:19:29;;;;;;;0.10;0.10;;;;;;;4.49;68.33;100831.63;5110631;28;20056;-84
2023/03/06 03:21:55;;;;;;;0.10;0.10;;;;;;;4.49;68.43;100824.63;5116427;28;20031;-83
2023/03/06 03:24:22;;;;;;;0.10;0.10;;;;;;;4.48;68.83;100829.88;5112122;28;20052;-82
2023/03/06 03:26:48;;;;;;;0.22;0.22;;;;;;;4.46;68.53;100828.97;5116558;27;20032;-81
2023/03/06 03:29:14;;;;;;;0.82;0.82;;;;;;;4.44;68.40;100831.59;5114352;28;20039;-83
2023/03/06 03:31:40;;;;;;;0.20;0.20;;;;;;;4.44;68.50;100828.97;5115675;28;20104;-82
2023/03/06 03:34:07;;;;;;;0.10;0.10;;;;;;;4.45;68.80;100828.13;5107790;28;20024;-83
2023/03/06 03:36:33;;;;;;;0.10;0.10;;;;;;;4.44;68.74;100823.72;5110176;28;20472;-84
2023/03/06 03:38:59;;;;;;;0.10;0.10;;;;;;;4.46;68.61;100819.38;5115019;28;20032;-82
2023/03/06 03:41:26;;;;;;;0.25;0.25;;;;;;;4.48;68.75;100814.13;5114515;28;20028;-84
2023/03/06 03:43:52;;;;;;;0.10;0.10;;;;;;;4.50;68.66;100812.41;5118460;28;20035;-84
2023/03/06 03:46:19;;;;;;;0.10;0.10;;;;;;;4.50;68.67;100804.53;5112851;28;20406;-83
2023/03/06 03:48:45;;;;;;;0.10;0.10;;;;;;;4.53;68.58;100807.16;5112103;28;20024;-83
2023/03/06 03:51:15;;;;;;;0.10;0.10;;;;;;;4.55;68.81;100800.19;5109866;28;20131;-83
2023/03/06 03:53:42;;;;;;;0.10;0.10;;;;;;;4.56;68.81;100803.66;5093549;28;20114;-84
2023/03/06 03:56:08;;;;;;;0.10;0.10;;;;;;;4.60;68.58;100800.19;5112214;28;20031;-83
2023/03/06 03:58:35;;;;;;;0.10;0.10;;;;;;;4.61;68.60;100796.69;5109211;28;20020;-84
2023/03/06 04:01:01;;;;;;;0.43;0.43;;;;;;;4.59;69.08;100795.81;5108793;28;20078;-84
2023/03/06 04:03:27;;;;;;;0.20;0.20;;;;;;;4.61;68.43;100794.06;5111470;28;20051;-84
2023/03/06 04:05:57;;;;;;;0.10;0.10;;;;;;;4.65;68.65;100787.97;5110340;28;20440;-83
2023/03/06 04:08:24;;;;;;;0.10;0.10;;;;;;;4.65;68.74;100793.22;5110960;28;20063;-83
2023/03/06 04:10:51;;;;;;;0.20;0.20;;;;;;;4.67;68.87;100780.97;5109040;28;20043;-83
2023/03/06 04:13:20;;;;;;;0.10;0.10;;;;;;;4.71;68.77;100785.38;5111091;28;20260;-83
2023/03/06 04:15:49;;;;;;;0.10;0.10;;;;;;;4.73;68.96;100780.97;5099181;27;20043;-82
2023/03/06 04:18:15;;;;;;;0.13;0.13;;;;;;;4.76;68.71;100774.88;5110150;27;20644;-82
2023/03/06 04:20:43;;;;;;;0.10;0.10;;;;;;;4.81;68.77;100773.13;5100929;28;20063;-83
2023/03/06 04:23:09;;;;;;;0.20;0.20;;;;;;;4.84;68.45;100781.03;5108063;28;20485;-81
2023/03/06 04:25:35;;;;;;;0.10;0.10;;;;;;;4.86;68.46;100784.53;5112859;27;20482;-82
2023/03/06 04:28:01;;;;;;;0.10;0.10;;;;;;;4.89;68.45;100786.28;5110550;27;20044;-81
2023/03/06 04:30:28;;;;;;;0.10;0.10;;;;;;;4.91;68.61;100779.28;5109847;27;20035;-82
2023/03/06 04:32:54;;;;;;;0.10;0.10;;;;;;;4.95;68.56;100773.19;5106515;28;20044;-82
2023/03/06 04:35:20;;;;;;;0.10;0.10;;;;;;;4.99;68.41;100774.94;5110162;28;20118;-82
2023/03/06 04:37:46;;;;;;;0.10;0.10;;;;;;;5.00;68.77;100771.44;5104515;28;20024;-83
2023/03/06 04:40:26;;;;;;;0.10;0.10;;;;;;;5.07;68.65;100762.69;5107157;28;20502;-81
2023/03/06 04:42:52;;;;;;;0.10;0.10;;;;;;;5.04;68.77;100764.44;5111398;27;20019;-83
2023/03/06 04:45:19;;;;;;;0.10;0.10;;;;;;;5.05;68.98;100760.91;5110131;28;20020;-82
2023/03/06 04:47:45;;;;;;;0.10;0.10;;;;;;;5.07;68.97;100765.31;5111321;28;20024;-83
2023/03/06 04:50:12;;;;;;;0.20;0.20;;;;;;;5.10;69.09;100767.94;5105201;28;20096;-81
2023/03/06 04:52:39;;;;;;;0.10;0.10;;;;;;;5.06;69.54;100754.78;5112681;27;20049;-83
2023/03/06 04:55:07;;;;;;;0.10;0.10;;;;;;;5.05;69.62;100750.41;5113211;27;20027;-82
2023/03/06 04:57:35;;;;;;;0.10;0.10;;;;;;;5.08;69.25;100755.69;5105055;27;20057;-81
2023/03/06 05:00:03;;;;;;;0.20;0.20;;;;;;;5.09;69.17;100753.06;5106105;28;20089;-82
2023/03/06 05:02:29;;;;;;;0.10;0.10;;;;;;;5.08;69.48;100748.66;5106232;28;20217;-81
2023/03/06 05:04:55;;;;;;;0.10;0.10;;;;;;;5.08;69.21;100748.66;5103082;28;20408;-83
2023/03/06 05:07:22;;;;;;;0.10;0.10;;;;;;;5.02;70.08;100748.66;5107501;28;20028;-81
2023/03/06 05:09:48;;;;;;;0.10;0.10;;;;;;;5.04;69.64;100749.53;5111683;28;20031;-82
2023/03/06 05:12:14;;;;;;;0.40;0.40;;;;;;;5.05;70.10;100756.56;5103335;28;20032;-83
2023/03/06 05:14:40;;;;;;;0.10;0.10;;;;;;;5.05;69.92;100750.41;5105772;28;20042;-84
2023/03/06 05:17:06;;;;;;;0.30;0.30;;;;;;;5.02;69.91;100739.06;5119586;28;20043;-83
2023/03/06 05:19:32;;;;;;;0.10;0.10;;;;;;;5.02;70.33;100740.78;5101843;28;20038;-83
2023/03/06 05:21:58;;;;;;;0.20;0.20;;;;;;;4.99;70.22;100739.03;5109050;27;20427;-84
2023/03/06 05:24:24;;;;;;;0.20;0.20;;;;;;;4.96;70.38;100744.28;5110590;27;20047;-83
2023/03/06 05:26:50;;;;;;;0.10;0.10;;;;;;;4.95;70.80;100739.06;5122885;27;20035;-82
2023/03/06 05:29:16;;;;;;;0.15;0.15;;;;;;;4.95;70.65;100744.28;5122102;28;20012;-83
2023/03/06 05:31:42;;;;;;;0.10;0.10;;;;;;;4.95;71.06;100739.06;5112717;28;20035;-84
2023/03/06 05:34:12;;;;;;;0.10;0.10;;;;;;;4.98;70.49;100739.03;5106480;28;20119;-85
2023/03/06 05:36:38;;;;;;;0.20;0.20;;;;;;;4.97;70.88;100740.81;5108737;28;20049;-84
2023/03/06 05:39:05;;;;;;;0.10;0.10;;;;;;;5.00;71.03;100745.19;5108661;27;20517;-83
2023/03/06 05:41:31;;;;;;;0.10;0.10;;;;;;;5.02;71.34;100743.41;5106735;28;20046;-83
2023/03/06 05:43:57;;;;;;;0.10;0.10;;;;;;;5.05;71.22;100740.81;5108441;28;20023;-83
2023/03/06 05:46:24;;;;;;;0.10;0.10;;;;;;;5.08;70.87;100739.94;5102584;28;20393;-83
2023/03/06 05:49:02;;;;;;;0.20;0.20;;;;;;;5.07;70.83;100743.41;5108841;28;20032;-83
2023/03/06 05:51:31;;;;;;;0.10;0.10;;;;;;;5.04;71.36;100749.53;5114094;28;20024;-81
2023/03/06 05:53:57;;;;;;;0.10;0.10;;;;;;;4.94;71.07;100748.66;5106423;28;20112;-80
2023/03/06 05:56:23;;;;;;;0.10;0.10;;;;;;;4.89;71.49;100765.28;5106513;28;20032;-80
2023/03/06 05:58:50;;;;;;;1.33;0.73;;;;;;;4.83;71.16;100753.88;5113911;28;20035;-81
2023/03/06 06:01:20;;;;;;;0.10;0.10;;;;;;;4.84;70.94;100753.00;5103469;28;20534;-82
2023/03/06 06:03:47;;;;;;;0.10;0.10;;;;;;;4.80;71.15;100746.00;5109683;28;20028;-82
2023/03/06 06:06:14;;;;;;;0.10;0.10;;;;;;;4.80;71.11;100743.38;5111910;28;20035;-80
2023/03/06 06:08:41;;;;;;;0.10;0.10;;;;;;;4.80;71.30;100751.25;5104220;28;20040;-80
2023/03/06 06:11:10;;;;;;;0.10;0.10;;;;;;;4.85;70.87;100743.41;5106353;28;20035;-83
2023/03/06 06:13:48;;;;;;;0.15;0.15;;;;;;;4.93;71.01;100739.03;5107891;28;20061;-81
2023/03/06 06:16:15;;;;;;;0.35;0.35;;;;;;;4.91;70.93;100743.41;5102996;28;20028;-82
2023/03/06 06:18:42;;;;;;;0.10;0.10;;;;;;;4.94;70.74;100737.28;5100668;28;20063;-84
2023/03/06 06:21:10;;;;;;;0.10;0.10;;;;;;;4.96;71.16;100743.41;5105275;28;20050;-83
2023/03/06 06:23:36;;;;;;;0.10;0.10;;;;;;;4.96;70.81;100754.78;5105112;28;20038;-83
2023/03/06 06:26:06;;;;;;;0.10;0.10;;;;;;;5.01;70.92;100754.81;5103909;28;20040;-83
2023/03/06 06:28:32;;;;;;;0.20;0.20;;;;;;;5.01;71.18;100752.19;5099596;28;20047;-82
2023/03/06 06:30:58;;;;;;;0.10;0.10;;;;;;;5.05;71.22;100745.16;5100836;28;20110;-83
2023/03/06 06:33:25;;;;;;;0.10;0.10;;;;;;;5.08;70.97;100747.81;5101482;28;20030;-83
2023/03/06 06:35:51;;;;;;;0.10;0.10;;;;;;;5.12;71.02;100749.56;5095956;28;20033;-82
2023/03/06 06:38:18;;;;;;;0.10;0.10;;;;;;;5.16;71.67;100744.31;5106855;28;20039;-83
2023/03/06 06:40:44;;;;;;;0.10;0.10;;;;;;;5.19;71.20;100738.19;5106868;28;20048;-82
2023/03/06 06:43:10;;;;;;;0.10;0.10;;;;;;;5.18;71.59;100742.56;5115949;28;20039;-85
2023/03/06 06:45:36;;;;;;;0.10;0.10;;;;;;;5.22;71.21;100758.31;5119762;28;20028;-83
2023/03/06 06:48:03;;;;;;;0.10;0.10;;;;;;;5.24;71.17;100756.56;5121217;28;20058;-82
2023/03/06 06:50:29;;;;;;;0.10;0.10;;;;;;;5.22;71.16;100753.97;5111577;28;20030;-82
2023/03/06 06:52:55;;;;;;;0.20;0.20;;;;;;;5.21;71.43;100756.56;5104679;28;20032;-82
2023/03/06 06:55:21;;;;;;;0.73;0.73;;;;;;;5.22;71.28;100755.69;5104935;28;20042;-83
2023/03/06 06:57:47;;;;;;;0.10;0.10;;;;;;;5.24;71.63;100753.94;5103915;28;20054;-81
2023/03/06 07:00:14;;;;;;;0.10;0.10;;;;;;;5.25;71.30;100763.59;5110934;28;20032;-82
2023/03/06 07:02:40;;;;;;;0.10;0.10;;;;;;;5.26;71.33;100754.81;5105679;28;20031;-84
2023/03/06 07:05:07;;;;;;;0.20;0.20;;;;;;;5.27;71.20;100762.72;5098111;28;20019;-82
2023/03/06 07:07:35;;;;;;;0.20;0.20;;;;;;;5.30;71.35;100767.09;5105291;28;20078;-83
2023/03/06 07:10:05;;;;;;;0.10;0.10;;;;;;;5.33;71.13;100754.84;5096718;28;20107;-82
2023/03/06 07:12:31;;;;;;;0.10;0.10;;;;;;;5.36;71.65;100761.84;5112168;28;20049;-82
2023/03/06 07:14:57;;;;;;;0.15;0.15;;;;;;;5.41;71.35;100749.56;5098595;28;20502;-82
2023/03/06 07:17:24;;;;;;;0.20;0.20;;;;;;;5.47;71.32;100754.81;5081502;28;20036;-82
2023/03/06 07:19:50;;;;;;;0.10;0.10;;;;;;;5.50;71.86;100749.56;5099429;28;20032;-81
2023/03/06 07:22:16;;;;;;;0.10;0.10;;;;;;;5.55;71.58;100751.31;5113048;28;20024;-82
2023/03/06 07:24:42;;;;;;;0.10;0.10;;;;;;;5.55;71.80;100759.22;5101686;28;20722;-82
2023/03/06 07:27:08;;;;;;;0.10;0.10;;;;;;;5.58;72.04;100761.81;5096394;28;20026;-82
2023/03/06 07:29:34;;;;;;;0.10;0.10;;;;;;;5.55;72.01;100751.31;5100486;28;20493;-83
2023/03/06 07:32:00;;;;;;;0.10;0.10;;;;;;;5.55;72.06;100746.94;5107495;28;20032;-83
2023/03/06 07:34:26;;;;;;;0.10;0.10;;;;;;;5.60;71.80;100752.19;5094780;28;20040;-83
2023/03/06 07:36:52;;;;;;;0.10;0.10;;;;;;;5.62;71.91;100758.31;5104656;28;20532;-83
2023/03/06 07:39:18;;;;;;;0.20;0.20;;;;;;;5.67;71.74;100749.53;5109999;28;20447;-82
2023/03/06 07:41:44;;;;;;;0.10;0.10;;;;;;;5.72;71.95;100754.81;5096102;28;20028;-82
2023/03/06 07:44:10;;;;;;;0.10;0.10;;;;;;;5.77;71.79;100746.88;5096099;28;20275;-84
2023/03/06 07:46:37;;;;;;;0.10;0.10;;;;;;;5.78;71.90;100749.53;5103780;28;20672;-83
2023/03/06 07:49:03;;;;;;;0.10;0.10;;;;;;;5.78;71.52;100746.91;5102867;28;20019;-85
2023/03/06 07:51:29;;;;;;;0.10;0.10;;;;;;;5.80;71.81;100747.75;5102944;28;20035;-82
2023/03/06 07:53:55;;;;;;;0.10;0.10;;;;;;;5.83;71.76;100753.03;5105422;28;20032;-83
2023/03/06 07:56:21;;;;;;;0.10;0.10;;;;;;;5.86;71.68;100751.25;5095109;28;20012;-82
2023/03/06 07:58:47;;;;;;;0.10;0.10;;;;;;;5.87;72.10;100753.91;5095260;28;20060;-82
2023/03/06 08:01:16;;;;;;;0.10;0.10;;;;;;;5.89;71.61;100752.13;5092982;28;20020;-82
2023/03/06 08:03:43;;;;;;;0.10;0.10;;;;;;;5.94;71.86;100754.75;5093732;28;20044;-82
2023/03/06 08:06:11;;;;;;;0.10;0.10;;;;;;;5.98;71.82;100764.38;5097918;28;20019;-80
2023/03/06 08:08:39;;;;;;;0.10;0.10;;;;;;;5.99;71.80;100760.91;5102591;28;20094;-83
2023/03/06 08:11:06;;;;;;;0.20;0.20;;;;;;;6.01;71.60;100759.16;5095020;28;20032;-81
2023/03/06 08:13:33;;;;;;;0.10;0.10;;;;;;;6.06;71.66;100759.16;5096872;28;20074;-81
2023/03/06 08:16:00;;;;;;;0.20;0.20;;;;;;;6.12;71.41;100760.00;5095769;28;20055;-85
2023/03/06 08:18:27;;;;;;;0.10;0.10;;;;;;;6.21;71.73;100760.88;5098747;28;20023;-83
2023/03/06 08:21:02;;;;;;;0.15;0.15;;;;;;;6.33;71.95;100758.19;5106838;28;20043;-83
2023/03/06 08:23:29;;;;;;;0.10;0.10;;;;;;;6.36;71.33;100758.16;5111480;28;20067;-83
2023/03/06 08:25:58;;;;;;;0.60;0.60;;;;;;;6.47;71.17;100760.75;5106475;28;20020;-81
2023/03/06 08:28:25;;;;;;;0.10;0.10;;;;;;;6.54;71.41;100756.34;5106413;28;20020;-81
2023/03/06 08:30:51;;;;;;;0.10;0.10;;;;;;;6.62;71.50;100759.81;5094503;28;20038;-81
2023/03/06 08:33:17;;;;;;;0.10;0.10;;;;;;;6.71;71.59;100749.22;5093242;28;20032;-82
2023/03/06 08:35:43;;;;;;;0.10;0.10;;;;;;;6.79;71.35;100757.06;5101690;28;20094;-80
2023/03/06 08:38:09;;;;;;;0.13;0.13;;;;;;;6.86;71.13;100755.28;5105075;28;20020;-81
2023/03/06 08:40:35;;;;;;;0.05;0.05;;;;;;;6.89;70.92;100753.53;5097946;28;20042;-82
2023/03/06 08:43:01;;;;;;;0.10;0.10;;;;;;;6.94;70.99;100754.34;5094157;28;20036;-82
2023/03/06 08:45:27;;;;;;;0.10;0.10;;;;;;;6.97;70.42;100756.09;5098688;28;20397;-82
2023/03/06 08:47:53;;;;;;;0.10;0.10;;;;;;;7.00;70.49;100757.84;5099702;28;20027;-82
2023/03/06 08:50:19;;;;;;;0.10;0.10;;;;;;;7.02;70.10;100754.31;5097159;28;20027;-82
2023/03/06 08:52:45;;;;;;;0.10;0.10;;;;;;;7.05;69.64;100764.84;5106896;28;20039;-81
2023/03/06 08:55:11;;;;;;;0.10;0.10;;;;;;;7.09;69.43;100761.28;5095345;28;20507;-83
2023/03/06 08:57:37;;;;;;;0.20;0.20;;;;;;;7.16;69.54;100766.50;5093327;28;20031;-82
2023/03/06 09:00:07;;;;;;;0.10;0.10;;;;;;;7.19;69.27;100762.09;5101464;28;20024;-81
2023/03/06 09:02:34;;;;;;;0.10;0.10;;;;;;;7.24;68.41;100759.41;5102377;28;20024;-80
2023/03/06 09:05:00;;;;;;;0.17;0.17;;;;;;;7.28;68.45;100755.88;5103535;28;20028;-81
2023/03/06 09:07:27;;;;;;;0.10;0.10;;;;;;;7.34;68.48;100752.31;5103994;28;20071;-82
2023/03/06 09:09:56;;;;;;;0.10;0.10;;;;;;;7.34;67.94;100754.94;5106726;28;20028;-82
2023/03/06 09:12:23;;;;;;;0.15;0.15;;;;;;;7.34;67.26;100752.31;5097386;28;20103;-84
2023/03/06 09:14:49;;;;;;;0.10;0.10;;;;;;;7.34;66.86;100750.56;5092794;28;20024;-83
2023/03/06 09:17:15;;;;;;;0.10;0.10;;;;;;;7.37;66.44;100755.78;5100087;28;20035;-84
2023/03/06 09:19:41;;;;;;;0.10;0.10;;;;;;;7.43;65.82;100754.88;5106625;28;20123;-85
2023/03/06 09:22:07;;;;;;;0.03;0.03;;;;;;;7.52;65.94;100753.94;5104356;28;20023;-85
2023/03/06 09:24:33;;;;;;;0.10;0.10;;;;;;;7.60;65.34;100758.25;5100646;28;20020;-83
2023/03/06 09:27:00;;;;;;;0.15;0.15;;;;;;;7.68;65.76;100750.25;5094130;28;20599;-82
2023/03/06 09:29:27;;;;;;;0.10;0.10;;;;;;;7.73;64.97;100752.84;5090334;28;20036;-81
2023/03/06 09:31:53;;;;;;;0.10;0.10;;;;;;;7.75;63.06;100751.94;5106196;28;20024;-82
2023/03/06 09:34:19;;;;;;;0.10;0.10;;;;;;;7.79;63.99;100750.16;5101317;28;20059;-81
2023/03/06 09:36:46;;;;;;;0.10;0.10;;;;;;;7.82;64.31;100757.16;5101357;28;20397;-83
2023/03/06 09:39:12;;;;;;;0.40;0.40;;;;;;;7.87;64.28;100747.44;5114129;28;20020;-83
2023/03/06 09:41:40;;;;;;;0.10;0.10;;;;;;;7.94;63.00;100752.63;5103686;28;20024;-83
2023/03/06 09:44:15;;;;;;;0.10;0.10;;;;;;;8.00;62.32;100756.97;5095172;28;20023;-83
2023/03/06 09:49:37;;;;;;;0.10;0.10;;;;;;;8.16;63.36;100751.50;5065215;28;20377;-81
2023/03/06 09:52:29;;;;;;;0.10;0.10;;;;;;;8.20;62.72;100743.56;5050664;28;20032;-80
2023/03/06 09:58:03;;;;;;;8.30;2.83;;;;;;;8.09;61.99;100746.31;5103440;27;20395;-81
2023/03/06 10:00:35;;;;;;;0.10;0.10;;;;;;;8.16;63.14;100743.59;5085496;28;20036;-81
2023/03/06 10:03:20;;;;;;;0.10;0.10;;;;;;;8.28;63.18;100746.09;5091205;28;20024;-82
2023/03/06 10:05:55;;;;;;;0.10;0.10;;;;;;;8.38;63.45;100731.88;5089683;28;20039;-80
2023/03/06 10:11:07;;;;;;;2.15;2.05;;;;;;;8.50;61.94;100738.81;5062312;28;20903;-81
2023/03/06 10:13:47;;;;;;;0.10;0.10;;;;;;;8.54;62.81;100735.22;5052461;28;20029;-80
2023/03/06 10:16:25;;;;;;;0.20;0.20;;;;;;;8.56;63.40;100735.19;5051291;28;20021;-82
2023/03/06 10:18:52;;;;;;;0.10;0.10;;;;;;;8.53;62.21;100737.91;5050653;28;20025;-80
2023/03/06 10:21:58;;;;;;;0.10;0.10;;;;;;;8.68;61.81;100732.41;5047731;28;20093;-80
2023/03/06 10:24:48;;;;;;;0.93;0.85;;;;;;;8.78;61.27;100734.94;5049442;28;20040;-81
2023/03/06 10:30:25;;;;;;;0.10;0.10;;;;;;;8.96;60.94;100723.19;5104973;27;1177307;-81
2023/03/06 10:35:40;;;;;;;0.10;0.10;;;;;;;8.94;61.78;100717.09;5100797;27;20385;-82
2023/03/06 10:38:36;;;;;;;0.05;0.05;;;;;;;8.84;59.88;100725.13;5077911;28;20508;-80
2023/03/06 10:41:07;;;;;;;0.20;0.20;;;;;;;8.74;61.39;100724.38;5073443;28;20078;-81
2023/03/06 10:43:35;;;;;;;0.10;0.10;;;;;;;8.55;62.47;100725.56;5073719;28;20025;-84
2023/03/06 10:46:05;;;;;;;0.13;0.13;;;;;;;8.28;63.04;100717.06;5076640;28;20032;-84
2023/03/06 10:48:34;;;;;;;0.10;0.10;;;;;;;8.15;63.66;100723.38;5074243;28;20086;-82
2023/03/06 10:51:20;;;;;;;0.10;0.10;;;;;;;8.10;64.15;100721.66;5068159;28;20032;-80
2023/03/06 10:56:40;;;;;;;0.10;0.10;;;;;;;7.94;65.23;100718.31;5133683;27;20399;-83
2023/03/06 11:01:47;;;;;;;0.10;0.10;;;;;;;8.12;65.24;100712.88;5137382;27;1181060;-87
2023/03/06 11:13:24;;;;;;;0.75;0.75;;;;;;;8.57;64.20;100699.97;5091699;27;20374;-80
2023/03/06 11:16:21;;;;;;;0.10;0.10;;;;;;;8.66;64.01;100688.41;5085651;28;20025;-81
2023/03/06 11:18:58;;;;;;;0.10;0.10;;;;;;;8.72;63.35;100689.22;5088442;28;20495;-81
2023/03/06 11:21:28;;;;;;;0.10;0.10;;;;;;;8.80;63.94;100689.09;5088132;28;20111;-80
2023/03/06 11:24:17;;;;;;;0.10;0.10;;;;;;;8.93;63.08;100692.41;5089323;28;20081;-80
2023/03/06 11:26:48;;;;;;;0.10;0.10;;;;;;;9.01;62.26;100679.06;5098340;28;20032;-80
2023/03/06 11:29:27;;;;;;;0.38;0.38;;;;;;;9.13;62.39;100672.72;5099260;28;20028;-81
2023/03/06 11:34:56;;;;;;;2.33;0.63;;;;;;;9.30;61.90;100665.38;5083361;27;1164717;-81
2023/03/06 11:38:03;;;;;;;0.32;0.32;;;;;;;9.38;62.01;100658.19;5106850;28;20036;-81
2023/03/06 11:40:39;;;;;;;0.10;0.10;;;;;;;9.41;61.81;100661.66;5104654;28;20028;-80
2023/03/06 11:46:03;;;;;;;0.10;0.10;;;;;;;9.56;61.07;100653.47;5053621;28;20391;-81
2023/03/06 11:51:18;;;;;;;0.10;0.10;;;;;;;9.65;60.52;100647.97;5113020;27;20355;-85
2023/03/06 11:53:44;;;;;;;0.10;0.10;;;;;;;9.57;58.91;100636.69;5105630;28;20031;-84
2023/03/06 11:59:02;;;;;;;0.10;0.10;;;;;;;9.69;59.07;100638.22;5055654;28;20974;-80
2023/03/06 12:01:38;;;;;;;0.13;0.13;;;;;;;9.62;55.84;100639.22;5044585;28;20033;-80
2023/03/06 12:07:31;;;;;;;0.10;0.10;;;;;;;9.70;55.17;100630.22;5067154;28;20406;-81
2023/03/06 12:15:40;;;;;;;0.20;0.20;;;;;;;9.71;54.18;100621.41;5105500;27;21112;-81
2023/03/06 12:23:40;;;;;;;1.00;1.00;;;;;;;9.32;56.41;100610.69;5105864;27;1193763;-83
2023/03/06 12:31:25;;;;;;;0.10;0.10;;;;;;;9.37;53.48;100603.56;5128860;27;1231269;-83
2023/03/06 12:39:46;;;;;;;0.85;0.85;;;;;;;9.57;52.44;100598.78;5103378;27;1166502;-82
2023/03/06 12:47:45;;;;;;;1.30;0.73;;;;;;;9.55;50.62;100581.16;5099086;27;20382;-83
2023/03/06 12:50:21;;;;;;;0.10;0.10;;;;;;;9.51;48.98;100583.91;5092176;28;20056;-83
2023/03/06 12:52:48;;;;;;;0.17;0.17;;;;;;;9.47;49.28;100582.22;5089907;28;20483;-83